Terminal Aerodrome Forecast
Issued by NWS

Home | Current Version | Previous Version | Text Only | Print | Product List | Glossary On
Versions: 1 2 3 4 5 6 7 8 9 10 11 12 13 14 15 16 17 18 19 20 21 22 23 24 25 26
000
FTUS43 KLOT 170529
TAFMDW
TAF
KMDW 170529Z 1706/1812 VRB03KT 6SM BR BCFG OVC200
     FM171600 20004KT P6SM OVC150
     FM180200 22005KT 4SM BR OVC012 PROB30 1806/1812 1SM -DZ BR BCFG
      OVC006=

USA.gov is the U.S. government's official web portal to all federal, state and local government web resources and services.